Sault Sainte Marie, MI

11:26 AM EST on February 07, 2016 (GMT -0500)
Sault Ste Marie Municipal / Sanderson Field | | Change Station
CLOSE
Current Station
Airport
Location: Sault Ste Marie,
Elevation: 715 ft
Nearby Weather Stations

Elev 715 ft 46.48 °N, 84.36 °W | Updated 14 minutes ago

Light Snow
Light Snow Mist
33 °F
Feels Like 24 °F
N
13
Wind Variable Wind from ESE

Today
High -- | Low -- °F
--% Chance of Precip.
Yesterday
High -- | Low -- °F
Precip. -- in
Pressure 29.71 in
Visibility 0.8 miles
Clouds Mostly Cloudy 800 ft
Overcast 1500 ft
Windchill 24 °F
Dew Point 30 °F
Humidity 89%
Rainfall 0.04 in
Snow Depth Not available.
7:53 AM 5:50 PM
Waning Crescent, 1% visible
SPECI KANJ 071612Z AUTO 12011KT 3/4SM -SN BR BKN008 OVC015 01/M01 A2971 RMK AO2 P0001 T00061011
Pressure 29.71 in
Visibility 0.8 miles
Clouds Mostly Cloudy 800 ft
Overcast 1500 ft
Windchill 24 °F
Dew Point 30 °F
Humidity 89%
Rainfall 0.04 in
Snow Depth Not available.
7:53 AM 5:50 PM
Waning Crescent, 1% visible
SPECI KANJ 071612Z AUTO 12011KT 3/4SM -SN BR BKN008 OVC015 01/M01 A2971 RMK AO2 P0001 T00061011

10-Day Weather Forecast

Almanac

Astronomy

Feb. 07, 2016 Rise Set
Actual Time
Civil Twilight
Nautical Twilight
Astronomical Twilight
Moon
Length of Visible Light
Length of Day
Tomorrow will be .
, % of the Moon is Illuminated

Today's Extremes

State Highs State Lows

Community

WunderPhotos

Upload Photos

1,891,221 photos uploaded!

WunderBlog® & News

Nearby

Air Quality

  Air Quality AQ Index Pollutant
Not available.

Snow Depth

Station Depth Elevation

Earthquake Activity

City Distance Mag. Time & Date
Minimum magnitude displayed is 2.5.

Coastal Water Temperatures

Place Temperature

Stations

Nearby Weather Stations

Station Location Temp. Windchill Dew Point Humidity Wind Precip. Elev Updated Type
                   

Watches & Warnings

There are currently no watches in effect.